createdAt,value
2022-10-24T00:01:24.769Z,16.76
2022-10-24T00:03:52.597Z,16.77
2022-10-24T00:06:22.442Z,16.68
2022-10-24T00:08:50.286Z,16.65
2022-10-24T00:11:20.983Z,16.69
2022-10-24T00:13:48.986Z,16.73
2022-10-24T00:16:16.804Z,16.70
2022-10-24T00:18:44.971Z,16.54
2022-10-24T00:21:13.087Z,16.48
2022-10-24T00:23:42.022Z,16.54
2022-10-24T00:26:10.200Z,16.64
2022-10-24T00:28:38.604Z,16.63
2022-10-24T00:31:08.270Z,16.62
2022-10-24T00:33:36.091Z,16.59
2022-10-24T00:36:03.800Z,16.55
2022-10-24T00:38:31.381Z,16.62
2022-10-24T00:41:00.299Z,16.60
2022-10-24T00:43:28.312Z,16.60
2022-10-24T00:45:57.408Z,16.62
2022-10-24T00:48:29.306Z,16.67
2022-10-24T00:51:00.093Z,16.63
2022-10-24T00:53:30.159Z,16.57
2022-10-24T00:56:02.117Z,16.55
2022-10-24T00:58:33.620Z,16.59
2022-10-24T01:01:01.918Z,16.53
2022-10-24T01:03:29.767Z,16.46
2022-10-24T01:06:10.173Z,16.51
2022-10-24T01:08:45.504Z,16.54
2022-10-24T01:11:28.316Z,16.41
2022-10-24T01:14:03.217Z,16.41
2022-10-24T01:16:38.541Z,16.25
2022-10-24T01:19:27.504Z,16.09
2022-10-24T01:21:59.760Z,16.00
2022-10-24T01:24:39.731Z,16.06
2022-10-24T01:27:40.238Z,15.94
2022-10-24T01:30:10.702Z,16.02
2022-10-24T01:32:49.180Z,16.13
2022-10-24T01:35:25.537Z,16.11
2022-10-24T01:38:00.048Z,16.09
2022-10-24T01:40:32.464Z,16.01
2022-10-24T01:43:04.140Z,16.04
2022-10-24T01:45:36.480Z,16.03
2022-10-24T01:48:08.843Z,16.04
2022-10-24T01:50:38.732Z,16.08
2022-10-24T01:53:07.467Z,16.06
2022-10-24T01:55:35.519Z,16.07
2022-10-24T01:58:03.079Z,16.15
2022-10-24T02:00:30.817Z,16.17
2022-10-24T02:03:03.038Z,16.11
2022-10-24T02:05:34.768Z,16.13
2022-10-24T02:08:07.057Z,16.14
2022-10-24T02:10:40.480Z,16.11
2022-10-24T02:13:17.773Z,16.14
2022-10-24T02:15:50.177Z,16.13
2022-10-24T02:18:19.806Z,16.10
2022-10-24T02:20:54.503Z,16.08
2022-10-24T02:23:28.161Z,16.02
2022-10-24T02:25:59.929Z,15.97
2022-10-24T02:28:34.834Z,15.95
2022-10-24T02:31:07.898Z,15.99
2022-10-24T02:33:40.730Z,16.05
2022-10-24T02:36:11.473Z,16.06
2022-10-24T02:38:42.259Z,16.07
2022-10-24T02:41:14.033Z,16.10
2022-10-24T02:43:43.415Z,15.96
2022-10-24T02:46:12.166Z,15.93
2022-10-24T02:48:46.215Z,16.02
2022-10-24T02:51:15.425Z,16.03
2022-10-24T02:53:43.183Z,16.05
2022-10-24T02:56:10.817Z,16.03
2022-10-24T02:58:38.416Z,16.07
2022-10-24T03:01:06.262Z,16.07
2022-10-24T03:03:33.975Z,16.10
2022-10-24T03:06:02.985Z,16.11
2022-10-24T03:08:30.545Z,16.06
2022-10-24T03:10:58.249Z,16.04
2022-10-24T03:13:25.865Z,16.09
2022-10-24T03:15:53.498Z,16.12
2022-10-24T03:18:21.321Z,16.16
2022-10-24T03:20:48.879Z,16.11
2022-10-24T03:23:19.280Z,16.13
2022-10-24T03:25:47.181Z,16.13
2022-10-24T03:28:14.796Z,16.17
2022-10-24T03:30:42.389Z,16.09
2022-10-24T03:33:10.023Z,16.10
2022-10-24T03:35:38.162Z,16.10
2022-10-24T03:38:08.092Z,16.09
2022-10-24T03:40:37.441Z,16.16
2022-10-24T03:43:05.423Z,16.11
2022-10-24T03:45:33.009Z,16.11
2022-10-24T03:48:00.606Z,16.12
2022-10-24T03:50:28.237Z,16.11
2022-10-24T03:52:55.921Z,16.14
2022-10-24T03:55:23.909Z,16.18
2022-10-24T03:57:52.872Z,16.23
2022-10-24T04:00:20.791Z,16.22
2022-10-24T04:02:50.642Z,16.22
2022-10-24T04:05:18.730Z,16.26
2022-10-24T04:07:46.915Z,16.28
2022-10-24T04:10:14.819Z,16.33
2022-10-24T04:12:42.503Z,16.30
2022-10-24T04:15:12.344Z,16.23
2022-10-24T04:17:40.189Z,16.24
2022-10-24T04:20:09.144Z,16.27
2022-10-24T04:22:36.755Z,16.32
2022-10-24T04:25:05.354Z,16.29
2022-10-24T04:27:32.932Z,16.16
2022-10-24T04:30:00.463Z,16.14
2022-10-24T04:32:29.456Z,16.13
2022-10-24T04:34:57.023Z,16.10
2022-10-24T04:37:24.629Z,16.06
2022-10-24T04:39:53.691Z,16.04
2022-10-24T04:42:21.577Z,16.03
2022-10-24T04:44:49.144Z,16.00
2022-10-24T04:47:17.434Z,16.03
2022-10-24T04:49:46.431Z,16.07
2022-10-24T04:52:13.943Z,16.08
2022-10-24T04:54:41.601Z,16.07
2022-10-24T04:57:09.170Z,16.06
2022-10-24T04:59:36.720Z,16.03
2022-10-24T05:02:04.364Z,16.03
2022-10-24T05:04:32.066Z,16.04
2022-10-24T05:07:01.534Z,16.08
2022-10-24T05:09:29.188Z,16.11
2022-10-24T05:11:57.441Z,16.16
2022-10-24T05:14:25.500Z,16.20
2022-10-24T05:16:53.077Z,16.21
2022-10-24T05:19:20.658Z,16.09
2022-10-24T05:21:48.218Z,16.11
2022-10-24T05:24:17.542Z,16.04
2022-10-24T05:26:45.123Z,16.07
2022-10-24T05:29:12.700Z,16.08
2022-10-24T05:31:40.365Z,16.04
2022-10-24T05:34:07.967Z,15.98
2022-10-24T05:36:35.569Z,16.02
2022-10-24T05:39:03.159Z,16.02
2022-10-24T05:41:32.585Z,15.93
2022-10-24T05:44:00.327Z,15.91
2022-10-24T05:46:28.099Z,15.97
2022-10-24T05:48:55.660Z,16.05
2022-10-24T05:51:23.346Z,16.13
2022-10-24T05:53:50.933Z,16.05
2022-10-24T05:56:18.527Z,16.00
2022-10-24T05:58:47.488Z,16.00
2022-10-24T06:01:15.205Z,15.98
2022-10-24T06:03:42.864Z,16.01
2022-10-24T06:06:11.398Z,15.99
2022-10-24T06:08:39.441Z,15.99
2022-10-24T06:11:10.754Z,15.98
2022-10-24T06:13:38.686Z,15.95
2022-10-24T06:16:09.037Z,15.99
2022-10-24T06:18:37.027Z,16.01
2022-10-24T06:21:06.596Z,16.18
2022-10-24T06:23:34.723Z,16.15
2022-10-24T06:26:02.450Z,16.18
2022-10-24T06:28:29.993Z,16.25
2022-10-24T06:30:57.824Z,16.32
2022-10-24T06:33:26.826Z,16.34
2022-10-24T06:35:54.390Z,16.34
2022-10-24T06:38:21.976Z,16.35
2022-10-24T06:40:49.525Z,16.36
2022-10-24T06:43:19.459Z,16.37
2022-10-24T06:45:47.071Z,16.36
2022-10-24T06:48:14.780Z,16.37
2022-10-24T06:50:43.843Z,16.40
2022-10-24T06:53:11.840Z,16.43
2022-10-24T06:55:40.529Z,16.44
2022-10-24T06:58:08.307Z,16.51
2022-10-24T07:00:35.947Z,16.52
2022-10-24T07:03:03.503Z,16.52
2022-10-24T07:05:31.092Z,16.52
2022-10-24T07:08:00.059Z,16.59
2022-10-24T07:10:27.593Z,16.61
2022-10-24T07:12:55.161Z,16.60
2022-10-24T07:15:23.073Z,16.66
2022-10-24T07:17:50.712Z,16.70
2022-10-24T07:20:18.313Z,16.68
2022-10-24T07:22:46.076Z,16.81
2022-10-24T07:25:15.245Z,16.83
2022-10-24T07:27:43.041Z,16.89
2022-10-24T07:30:17.586Z,16.99
2022-10-24T07:32:45.424Z,17.06
2022-10-24T07:35:14.062Z,17.09
2022-10-24T07:37:41.954Z,17.15
2022-10-24T07:40:10.941Z,17.19
2022-10-24T07:42:39.884Z,17.22
2022-10-24T07:45:08.550Z,17.21
2022-10-24T07:47:36.144Z,17.28
2022-10-24T07:50:04.602Z,17.29
2022-10-24T07:52:32.205Z,17.34
2022-10-24T07:54:59.766Z,17.36
2022-10-24T07:57:28.022Z,17.42
2022-10-24T07:59:56.963Z,17.47
2022-10-24T08:02:24.524Z,17.52
2022-10-24T08:04:52.105Z,17.59
2022-10-24T08:07:19.683Z,17.59
2022-10-24T08:09:51.954Z,17.70
2022-10-24T08:12:19.577Z,17.75
2022-10-24T08:14:47.273Z,17.76
2022-10-24T08:17:18.421Z,17.76
2022-10-24T08:19:46.229Z,17.76
2022-10-24T08:22:13.838Z,17.74
2022-10-24T08:24:41.483Z,17.72
2022-10-24T08:27:09.212Z,17.72
2022-10-24T08:29:37.105Z,17.72
2022-10-24T08:32:06.745Z,17.70
2022-10-24T08:34:35.857Z,17.72
2022-10-24T08:37:06.278Z,17.66
2022-10-24T08:39:33.891Z,17.71
2022-10-24T08:42:04.941Z,17.76
2022-10-24T08:44:35.649Z,17.82
2022-10-24T08:47:09.815Z,17.86
2022-10-24T08:49:47.826Z,17.94
2022-10-24T08:52:24.565Z,18.05
2022-10-24T08:54:53.477Z,18.25
2022-10-24T08:57:25.996Z,18.41
2022-10-24T08:59:58.026Z,18.59
2022-10-24T09:02:28.078Z,18.94
2022-10-24T09:05:00.528Z,19.44
2022-10-24T09:07:28.668Z,20.12
2022-10-24T09:10:06.684Z,20.63
2022-10-24T09:12:36.719Z,20.82
2022-10-24T09:15:14.962Z,21.46
2022-10-24T09:17:44.007Z,22.41
2022-10-24T09:20:24.235Z,23.60
2022-10-24T09:22:52.361Z,24.96
2022-10-24T09:25:23.106Z,26.08
2022-10-24T09:27:51.622Z,26.42
2022-10-24T09:30:22.081Z,27.12
2022-10-24T09:32:49.829Z,29.72
2022-10-24T09:35:22.983Z,30.64
2022-10-24T09:37:52.543Z,30.64
2022-10-24T09:40:23.360Z,29.11
2022-10-24T09:42:55.357Z,27.37
2022-10-24T09:45:38.624Z,26.03
2022-10-24T09:48:17.646Z,25.64
2022-10-24T09:50:49.544Z,24.84
2022-10-24T09:53:27.323Z,24.03
2022-10-24T09:55:58.042Z,23.44
2022-10-24T09:58:32.637Z,22.92
2022-10-24T10:01:03.881Z,22.60
2022-10-24T10:03:31.630Z,22.30
2022-10-24T10:06:04.517Z,22.14
2022-10-24T10:08:33.895Z,22.19
2022-10-24T10:11:05.973Z,22.18
2022-10-24T10:13:38.583Z,22.06
2022-10-24T10:16:10.751Z,22.05
2022-10-24T10:18:46.968Z,22.18
2022-10-24T10:21:18.342Z,22.13
2022-10-24T10:23:47.842Z,22.14
2022-10-24T10:26:22.570Z,22.39
2022-10-24T10:29:21.747Z,22.17
2022-10-24T10:31:54.058Z,21.92
2022-10-24T10:34:29.739Z,21.77
2022-10-24T10:37:24.387Z,21.65
2022-10-24T10:40:24.468Z,21.63
2022-10-24T10:43:05.191Z,22.20
2022-10-24T10:45:36.999Z,22.28
2022-10-24T10:48:21.021Z,22.97
2022-10-24T10:50:55.365Z,25.15
2022-10-24T10:53:32.488Z,26.15
2022-10-24T10:56:07.535Z,25.68
2022-10-24T10:58:44.417Z,25.22
2022-10-24T11:01:21.945Z,24.51
2022-10-24T11:03:55.106Z,24.47
2022-10-24T11:06:33.206Z,25.06
2022-10-24T11:09:27.580Z,26.44
2022-10-24T11:12:03.961Z,27.94
2022-10-24T11:14:36.071Z,29.96
2022-10-24T11:17:11.938Z,30.85
2022-10-24T11:19:53.980Z,30.41
2022-10-24T11:22:26.198Z,30.56
2022-10-24T11:25:01.285Z,30.25
2022-10-24T11:27:37.862Z,29.50
2022-10-24T11:30:13.391Z,28.36
2022-10-24T11:32:45.631Z,27.55
2022-10-24T11:35:23.208Z,27.18
2022-10-24T11:37:53.736Z,27.06
2022-10-24T11:40:25.639Z,26.98
2022-10-24T11:42:59.192Z,27.27
2022-10-24T11:45:30.057Z,27.64
2022-10-24T11:48:11.618Z,27.90
2022-10-24T11:50:43.737Z,27.54
2022-10-24T11:53:24.345Z,27.73
2022-10-24T11:55:57.854Z,27.68
2022-10-24T11:58:28.908Z,26.99
2022-10-24T12:01:14.515Z,26.47
2022-10-24T12:04:15.097Z,25.86
2022-10-24T12:07:23.752Z,25.98
2022-10-24T12:10:15.833Z,26.28
2022-10-24T12:13:22.105Z,26.53
2022-10-24T12:16:00.576Z,26.57
2022-10-24T12:18:34.204Z,26.50
2022-10-24T12:21:05.282Z,26.12
2022-10-24T12:23:33.548Z,25.70
2022-10-24T12:26:06.637Z,25.49
2022-10-24T12:28:36.418Z,25.29
2022-10-24T12:31:22.346Z,25.32
2022-10-24T12:34:27.326Z,25.69
2022-10-24T12:37:14.125Z,26.44
2022-10-24T12:39:47.152Z,26.72
2022-10-24T12:42:17.476Z,27.05
2022-10-24T12:44:50.405Z,27.17
2022-10-24T12:47:39.944Z,27.18
2022-10-24T12:50:44.903Z,27.39
2022-10-24T12:53:35.030Z,27.31
2022-10-24T12:56:15.510Z,27.02
2022-10-24T12:58:45.484Z,26.75
2022-10-24T13:01:27.269Z,26.53
2022-10-24T13:04:21.562Z,26.02
2022-10-24T13:07:01.416Z,25.82
2022-10-24T13:09:39.289Z,25.39
2022-10-24T13:12:32.352Z,25.04
2022-10-24T13:15:14.631Z,24.69
2022-10-24T13:17:50.168Z,24.47
2022-10-24T13:20:22.541Z,24.11
2022-10-24T13:22:51.706Z,23.89
2022-10-24T13:25:33.579Z,23.73
2022-10-24T13:28:38.973Z,23.54
2022-10-24T13:31:42.810Z,23.42
2022-10-24T13:34:31.535Z,23.33
2022-10-24T13:37:03.630Z,23.24
2022-10-24T13:39:37.494Z,23.13
2022-10-24T13:42:19.921Z,23.01
2022-10-24T13:44:50.929Z,22.92
2022-10-24T13:47:23.742Z,22.73
2022-10-24T13:49:58.899Z,22.59
2022-10-24T13:52:33.698Z,22.48
2022-10-24T13:55:06.085Z,22.39
2022-10-24T13:57:37.980Z,22.35
2022-10-24T14:00:09.550Z,22.27
2022-10-24T14:02:42.757Z,22.24
2022-10-24T14:05:24.609Z,22.21
2022-10-24T14:07:52.528Z,22.19
2022-10-24T14:10:22.502Z,22.23
2022-10-24T14:12:51.916Z,22.25
2022-10-24T14:15:22.368Z,22.26
2022-10-24T14:17:58.815Z,22.27
2022-10-24T14:20:29.959Z,22.25
2022-10-24T14:22:58.043Z,22.24
2022-10-24T14:25:32.981Z,22.17
2022-10-24T14:28:03.281Z,22.11
2022-10-24T14:30:34.947Z,22.07
2022-10-24T14:33:25.387Z,22.02
2022-10-24T14:35:57.969Z,22.04
2022-10-24T14:38:27.764Z,22.12
2022-10-24T14:41:08.338Z,22.12
2022-10-24T14:43:39.829Z,22.04
2022-10-24T14:46:27.941Z,21.86
2022-10-24T14:48:55.728Z,21.74
2022-10-24T14:51:28.116Z,21.71
2022-10-24T14:53:56.894Z,21.66
2022-10-24T14:56:28.285Z,21.60
2022-10-24T14:58:58.124Z,21.65
2022-10-24T15:01:26.235Z,21.63
2022-10-24T15:03:55.834Z,21.59
2022-10-24T15:06:27.542Z,21.59
2022-10-24T15:09:04.784Z,21.54
2022-10-24T15:11:40.259Z,21.54
2022-10-24T15:14:39.445Z,21.49
2022-10-24T15:17:25.858Z,21.46
2022-10-24T15:19:58.346Z,21.38
2022-10-24T15:22:30.308Z,21.32
2022-10-24T15:25:00.796Z,21.29
2022-10-24T15:27:31.888Z,21.21
2022-10-24T15:29:59.479Z,21.10
2022-10-24T15:32:27.091Z,21.02
2022-10-24T15:34:55.716Z,20.97
2022-10-24T15:37:25.763Z,20.93
2022-10-24T15:39:55.807Z,20.89
2022-10-24T15:42:23.519Z,20.85
2022-10-24T15:44:51.178Z,20.82
2022-10-24T15:47:23.726Z,20.73
2022-10-24T15:49:52.118Z,20.67
2022-10-24T15:52:19.746Z,20.62
2022-10-24T15:54:47.371Z,20.55
2022-10-24T15:57:17.323Z,20.54
2022-10-24T15:59:44.940Z,20.51
2022-10-24T16:02:17.836Z,20.47
2022-10-24T16:04:45.529Z,20.46
2022-10-24T16:07:13.191Z,20.45
2022-10-24T16:09:40.842Z,20.44
2022-10-24T16:12:08.969Z,20.43
2022-10-24T16:14:37.934Z,20.41
2022-10-24T16:17:05.628Z,20.40
2022-10-24T16:19:33.262Z,20.36
2022-10-24T16:22:01.505Z,20.33
2022-10-24T16:24:29.949Z,20.28
2022-10-24T16:26:57.669Z,20.28
2022-10-24T16:29:25.342Z,20.23
2022-10-24T16:31:54.320Z,20.21
2022-10-24T16:34:23.410Z,20.22
2022-10-24T16:36:54.357Z,20.22
2022-10-24T16:39:21.937Z,20.18
2022-10-24T16:41:49.482Z,20.15
2022-10-24T16:44:17.135Z,20.09
2022-10-24T16:46:44.698Z,20.01
2022-10-24T16:49:13.658Z,19.99
2022-10-24T16:51:43.971Z,19.94
2022-10-24T16:54:11.868Z,19.91
2022-10-24T16:56:39.484Z,19.87
2022-10-24T16:59:09.279Z,19.77
2022-10-24T17:01:39.470Z,19.71
2022-10-24T17:04:07.221Z,19.65
2022-10-24T17:06:36.435Z,19.61
2022-10-24T17:09:04.180Z,19.51
2022-10-24T17:11:45.048Z,19.47
2022-10-24T17:14:14.008Z,19.41
2022-10-24T17:16:42.097Z,19.35
2022-10-24T17:19:16.102Z,19.33
2022-10-24T17:21:48.085Z,19.30
2022-10-24T17:24:19.017Z,19.28
2022-10-24T17:26:46.947Z,19.25
2022-10-24T17:29:18.794Z,19.20
2022-10-24T17:31:46.590Z,19.17
2022-10-24T17:34:14.446Z,19.13
2022-10-24T17:36:47.942Z,19.09
2022-10-24T17:41:54.567Z,18.99
2022-10-24T17:44:22.952Z,18.96
2022-10-24T17:46:54.649Z,18.89
2022-10-24T17:49:26.177Z,18.86
2022-10-24T17:51:53.979Z,18.74
2022-10-24T17:54:23.303Z,18.74
2022-10-24T17:56:50.994Z,18.68
2022-10-24T17:59:18.644Z,18.63
2022-10-24T18:01:46.346Z,18.60
2022-10-24T18:04:14.292Z,18.57
2022-10-24T18:06:43.474Z,18.59
2022-10-24T18:09:11.528Z,18.57
2022-10-24T18:11:41.021Z,18.54
2022-10-24T18:14:08.678Z,18.49
2022-10-24T18:16:38.254Z,18.47
2022-10-24T18:19:06.357Z,18.45
2022-10-24T18:21:34.114Z,18.42
2022-10-24T18:24:01.764Z,18.38
2022-10-24T18:26:29.487Z,18.30
2022-10-24T18:28:58.976Z,18.27
2022-10-24T18:31:28.172Z,18.26
2022-10-24T18:33:56.768Z,18.16
2022-10-24T18:36:26.079Z,18.12
2022-10-24T18:38:55.694Z,18.12
2022-10-24T18:41:34.543Z,18.09
2022-10-24T18:44:13.533Z,18.05
2022-10-24T18:46:41.955Z,18.06
2022-10-24T18:49:11.268Z,18.07
2022-10-24T18:51:43.411Z,18.05
2022-10-24T18:56:50.743Z,18.01
2022-10-24T18:59:21.990Z,17.98
2022-10-24T19:02:01.676Z,17.99
2022-10-24T19:04:29.587Z,18.02
2022-10-24T19:07:01.547Z,18.01
2022-10-24T19:09:29.273Z,18.00
2022-10-24T19:11:57.151Z,18.01
2022-10-24T19:14:27.925Z,18.00
2022-10-24T19:16:59.123Z,17.98
2022-10-24T19:19:30.118Z,17.96
2022-10-24T19:21:57.890Z,17.93
2022-10-24T19:24:25.478Z,17.91
2022-10-24T19:26:53.090Z,17.90
2022-10-24T19:29:20.667Z,17.88
2022-10-24T19:31:49.641Z,17.85
2022-10-24T19:34:17.430Z,17.84
2022-10-24T19:36:45.045Z,17.92
2022-10-24T19:39:12.710Z,17.86
2022-10-24T19:41:40.284Z,17.81
2022-10-24T19:44:07.891Z,17.74
2022-10-24T19:46:35.500Z,17.71
2022-10-24T19:49:04.795Z,17.64
2022-10-24T19:51:32.373Z,17.56
2022-10-24T19:53:59.948Z,17.51
2022-10-24T19:56:29.051Z,17.47
2022-10-24T19:58:56.969Z,17.51
2022-10-24T20:01:29.980Z,17.51
2022-10-24T20:03:58.275Z,17.48
2022-10-24T20:06:27.340Z,17.41
2022-10-24T20:08:55.363Z,17.38
2022-10-24T20:11:23.632Z,17.32
2022-10-24T20:13:51.586Z,17.20
2022-10-24T20:16:19.670Z,17.22
2022-10-24T20:18:47.753Z,17.17
2022-10-24T20:21:17.775Z,17.05
2022-10-24T20:23:47.188Z,16.99
2022-10-24T20:26:17.015Z,16.90
2022-10-24T20:28:47.011Z,16.84
2022-10-24T20:31:22.637Z,16.76
2022-10-24T20:33:50.513Z,16.74
2022-10-24T20:36:18.834Z,16.61
2022-10-24T20:38:47.796Z,16.57
2022-10-24T20:41:15.584Z,16.58
2022-10-24T20:43:43.254Z,16.52
2022-10-24T20:46:10.899Z,16.43
2022-10-24T20:48:38.562Z,16.38
2022-10-24T20:51:08.818Z,16.34
2022-10-24T20:53:36.748Z,16.29
2022-10-24T20:56:07.573Z,16.27
2022-10-24T20:58:37.598Z,16.28
2022-10-24T21:01:08.666Z,16.23
2022-10-24T21:03:36.679Z,16.19
2022-10-24T21:06:05.228Z,16.12
2022-10-24T21:08:32.877Z,16.13
2022-10-24T21:11:00.460Z,16.10
2022-10-24T21:13:29.466Z,16.08
2022-10-24T21:15:57.625Z,16.08
2022-10-24T21:18:25.173Z,16.09
2022-10-24T21:20:52.748Z,16.05
2022-10-24T21:23:20.360Z,16.01
2022-10-24T21:25:47.895Z,15.95
2022-10-24T21:28:15.494Z,15.90
2022-10-24T21:30:44.402Z,15.89
2022-10-24T21:33:11.956Z,15.78
2022-10-24T21:35:40.031Z,15.69
2022-10-24T21:38:07.593Z,15.71
2022-10-24T21:40:35.214Z,15.72
2022-10-24T21:43:03.029Z,15.74
2022-10-24T21:45:31.744Z,15.67
2022-10-24T21:48:00.621Z,15.68
2022-10-24T21:50:28.166Z,15.69
2022-10-24T21:52:55.707Z,15.69
2022-10-24T21:55:23.301Z,15.65
2022-10-24T21:57:50.869Z,15.62
2022-10-24T22:00:18.595Z,15.69
2022-10-24T22:02:46.662Z,15.70
2022-10-24T22:05:15.857Z,15.65
2022-10-24T22:07:46.148Z,15.63
2022-10-24T22:10:16.725Z,15.61
2022-10-24T22:12:44.285Z,15.54
2022-10-24T22:15:12.064Z,15.55
2022-10-24T22:17:39.741Z,15.55
2022-10-24T22:20:08.163Z,15.54
2022-10-24T22:22:37.054Z,15.55
2022-10-24T22:25:05.207Z,15.49
2022-10-24T22:27:32.812Z,15.52
2022-10-24T22:30:00.356Z,15.47
2022-10-24T22:32:28.298Z,15.44
2022-10-24T22:34:56.385Z,15.45
2022-10-24T22:37:28.798Z,15.39
2022-10-24T22:39:58.184Z,15.34
2022-10-24T22:42:26.082Z,15.35
2022-10-24T22:44:54.297Z,15.33
2022-10-24T22:47:45.802Z,15.31
2022-10-24T22:50:29.474Z,15.27
2022-10-24T22:52:57.542Z,15.24
2022-10-24T22:55:32.798Z,15.23
2022-10-24T22:58:00.858Z,15.18
2022-10-24T23:00:28.803Z,15.17
2022-10-24T23:03:05.087Z,15.16
2022-10-24T23:05:38.645Z,15.09
2022-10-24T23:08:10.608Z,15.16
2022-10-24T23:10:40.160Z,15.17
2022-10-24T23:13:09.330Z,15.16
2022-10-24T23:15:37.475Z,15.14
2022-10-24T23:18:05.575Z,15.13
2022-10-24T23:20:36.525Z,15.08
2022-10-24T23:23:24.630Z,15.06
2022-10-24T23:26:02.913Z,15.08
2022-10-24T23:28:37.361Z,15.00
2022-10-24T23:31:05.550Z,14.98
2022-10-24T23:33:33.730Z,14.95
2022-10-24T23:36:01.772Z,14.91
2022-10-24T23:38:29.929Z,14.87
2022-10-24T23:40:59.636Z,14.89
2022-10-24T23:43:27.733Z,14.88
2022-10-24T23:46:00.139Z,14.93
2022-10-24T23:48:45.021Z,14.94
2022-10-24T23:51:15.653Z,14.89
2022-10-24T23:53:50.232Z,14.87
2022-10-24T23:56:21.289Z,14.84
2022-10-24T23:58:48.927Z,14.84
